Ardsley, New York
Current Conditions -  °F | °C
As of 12:56 PM on Saturday 25 Oct 2014 (Local Time) from KHPN Reporting Station
Clear Clear  
Wind Chill: 63°   Ceiling: Unl
Heat Index: 63°   Visibility: 10mi
Dew Point: 42°   Wind: 9mph
Humidity: 46%   Direction: 300°WNW
Pressure: 29.75"   Gusts: NA
Location:  41.01°N, 73.84°W
Report Text: KHPN 251656Z 30008KT 10SM CLR 17/06 A2975 RMK AO2 SLP076 T01720056
Loading
Personal Weather Stations






























Interactive Weather Map New forecast layout! Learn more

10-Day Weather Forecast

Advertisements
Track Severe Weather on mobile